Time;durP1;ratioP1;P1;durP2;ratioP2;P2;SDS_P1;SDS_P2;PMS_P1;PMS_P2;Temp;Humidity;BMP_temperature;BMP_pressure;BME280_temperature;BME280_humidity;BME280_pressure;Samples;Min_cycle;Max_cycle;Signal;HPM_P1;HPM_P2
2024/01/02 00:00:56;;;;;;;0.30;0.30;;;;;;;5.50;100.00;99887.94;5092501;28;20472;-58
2024/01/02 00:03:23;;;;;;;0.30;0.30;;;;;;;5.52;100.00;99888.88;5093060;28;20035;-59
2024/01/02 00:05:49;;;;;;;0.30;0.30;;;;;;;5.53;100.00;99888.91;5093474;28;20035;-59
2024/01/02 00:08:14;;;;;;;0.30;0.30;;;;;;;5.54;100.00;99877.00;5092331;28;20020;-58
2024/01/02 00:10:39;;;;;;;0.30;0.30;;;;;;;5.55;100.00;99874.50;5093368;28;20464;-59
2024/01/02 00:13:05;;;;;;;0.30;0.30;;;;;;;5.56;100.00;99866.00;5093287;28;20020;-58
2024/01/02 00:15:30;;;;;;;0.35;0.35;;;;;;;5.59;100.00;99860.13;5092472;28;20379;-58
2024/01/02 00:17:55;;;;;;;0.30;0.30;;;;;;;5.59;100.00;99855.91;5093177;28;20043;-58
2024/01/02 00:20:21;;;;;;;0.30;0.30;;;;;;;5.61;100.00;99853.38;5093001;28;20032;-59
2024/01/02 00:22:46;;;;;;;0.38;0.38;;;;;;;5.63;100.00;99835.53;5092393;28;20391;-58
2024/01/02 00:25:12;;;;;;;0.30;0.30;;;;;;;5.65;100.00;99818.59;5092796;28;20052;-59
2024/01/02 00:27:37;;;;;;;0.30;0.30;;;;;;;5.67;100.00;99811.81;5093221;28;20519;-59
2024/01/02 00:30:03;;;;;;;0.30;0.30;;;;;;;5.72;100.00;99805.16;5092456;28;20050;-58
2024/01/02 00:32:28;;;;;;;0.30;0.30;;;;;;;5.74;100.00;99798.44;5092867;28;20016;-58
2024/01/02 00:34:53;;;;;;;0.30;0.30;;;;;;;5.76;100.00;99776.34;5092445;28;20070;-57
2024/01/02 00:37:19;;;;;;;0.30;0.30;;;;;;;5.76;100.00;99766.97;5092755;28;20038;-59
2024/01/02 00:39:44;;;;;;;0.30;0.30;;;;;;;5.78;100.00;99751.69;5092668;28;20023;-59
2024/01/02 00:42:09;;;;;;;0.30;0.30;;;;;;;5.78;100.00;99736.34;5091627;28;20028;-59
2024/01/02 00:44:34;;;;;;;0.30;0.30;;;;;;;5.81;100.00;99725.34;5092766;28;20051;-59
2024/01/02 00:47:00;;;;;;;0.30;0.30;;;;;;;5.84;100.00;99710.09;5092986;28;20031;-59
2024/01/02 00:49:25;;;;;;;0.40;0.40;;;;;;;5.85;100.00;99702.47;5091413;28;20137;-59
2024/01/02 00:51:50;;;;;;;0.30;0.30;;;;;;;5.85;100.00;99689.69;5093006;28;20503;-59
2024/01/02 00:54:15;;;;;;;0.30;0.30;;;;;;;5.88;100.00;99681.25;5092697;28;20031;-59
2024/01/02 00:56:41;;;;;;;0.30;0.30;;;;;;;5.88;100.00;99674.44;5092102;28;20028;-59
2024/01/02 00:59:06;;;;;;;0.30;0.30;;;;;;;5.89;100.00;99660.81;5096838;28;20050;-59
2024/01/02 01:01:31;;;;;;;0.30;0.30;;;;;;;5.90;100.00;99647.22;5096561;28;20047;-59
2024/01/02 01:03:57;;;;;;;0.20;0.20;;;;;;;5.91;100.00;99632.72;5095843;28;20040;-59
2024/01/02 01:06:22;;;;;;;0.40;0.40;;;;;;;5.92;100.00;99635.31;5095811;28;20040;-59
2024/01/02 01:08:47;;;;;;;0.30;0.30;;;;;;;5.92;100.00;99625.09;5095405;28;20102;-59
2024/01/02 01:11:12;;;;;;;0.22;0.22;;;;;;;5.93;100.00;99620.88;5094329;28;20035;-58
2024/01/02 01:13:38;;;;;;;0.20;0.20;;;;;;;5.94;100.00;99603.00;5096777;28;20380;-59
2024/01/02 01:16:04;;;;;;;0.40;0.40;;;;;;;5.94;100.00;99594.47;5096427;28;20028;-58
2024/01/02 01:18:29;;;;;;;0.30;0.30;;;;;;;5.94;100.00;99590.22;5095358;28;20503;-59
2024/01/02 01:20:54;;;;;;;0.30;0.30;;;;;;;5.96;100.00;99584.28;5095824;28;20040;-59
2024/01/02 01:23:19;;;;;;;0.30;0.30;;;;;;;5.97;100.00;99586.03;5096018;28;20561;-59
2024/01/02 01:25:45;;;;;;;0.35;0.35;;;;;;;5.96;100.00;99574.91;5095700;28;20036;-59
2024/01/02 01:28:10;;;;;;;0.30;0.30;;;;;;;5.96;100.00;99553.59;5095875;28;20026;-58
2024/01/02 01:30:35;;;;;;;0.28;0.28;;;;;;;5.95;100.00;99542.47;5096365;28;20138;-58
2024/01/02 01:33:00;;;;;;;0.30;0.30;;;;;;;5.94;100.00;99526.28;5095345;28;20110;-58
2024/01/02 01:35:26;;;;;;;0.30;0.30;;;;;;;5.98;100.00;99516.13;5096055;28;20072;-59
2024/01/02 01:37:51;;;;;;;0.30;0.30;;;;;;;5.98;100.00;99513.56;5096318;28;20031;-59
2024/01/02 01:40:17;;;;;;;0.30;0.30;;;;;;;6.00;100.00;99500.03;5095154;28;20036;-59
2024/01/02 01:42:42;;;;;;;0.30;0.30;;;;;;;6.02;100.00;99492.41;5096301;28;20024;-59
2024/01/02 01:45:08;;;;;;;0.22;0.22;;;;;;;6.05;100.00;99492.50;5095458;28;20383;-59
2024/01/02 01:47:33;;;;;;;0.30;0.30;;;;;;;6.05;100.00;99482.25;5095767;28;20077;-59
2024/01/02 01:49:59;;;;;;;0.30;0.30;;;;;;;6.10;100.00;99476.41;5095954;28;20047;-59
2024/01/02 01:52:25;;;;;;;0.30;0.30;;;;;;;6.12;100.00;99458.59;5094625;28;20403;-58
2024/01/02 01:54:50;;;;;;;0.28;0.28;;;;;;;6.12;100.00;99456.03;5095758;28;20020;-59
2024/01/02 01:57:17;;;;;;;0.30;0.30;;;;;;;6.12;100.00;99450.91;5095602;28;20028;-59
2024/01/02 01:59:44;;;;;;;0.30;0.30;;;;;;;6.14;100.00;99445.81;5094843;28;20529;-59
2024/01/02 02:02:10;;;;;;;0.20;0.20;;;;;;;6.13;100.00;99437.25;5095746;28;20459;-59
2024/01/02 02:04:39;;;;;;;0.20;0.20;;;;;;;6.13;100.00;99433.84;5095704;28;20055;-59
2024/01/02 02:07:04;;;;;;;0.15;0.15;;;;;;;6.10;100.00;99415.03;5095185;28;20118;-59
2024/01/02 02:09:30;;;;;;;0.25;0.25;;;;;;;6.11;100.00;99410.78;5094509;28;20060;-58
2024/01/02 02:11:55;;;;;;;0.22;0.22;;;;;;;6.12;100.00;99402.31;5095869;28;20111;-59
2024/01/02 02:14:21;;;;;;;0.30;0.30;;;;;;;6.12;100.00;99402.31;5094704;28;20099;-58
2024/01/02 02:16:48;;;;;;;0.30;0.30;;;;;;;6.12;100.00;99392.06;5095612;28;20142;-58
2024/01/02 02:19:14;;;;;;;0.30;0.30;;;;;;;6.11;100.00;99382.66;5094285;28;20024;-59
2024/01/02 02:21:39;;;;;;;0.30;0.30;;;;;;;6.10;100.00;99370.69;5094686;28;20051;-58
2024/01/02 02:24:04;;;;;;;0.30;0.30;;;;;;;6.10;100.00;99363.03;5095296;28;20038;-59
2024/01/02 02:26:30;;;;;;;0.20;0.20;;;;;;;6.11;100.00;99354.53;5095317;28;20024;-59
2024/01/02 02:28:55;;;;;;;0.30;0.30;;;;;;;6.11;100.00;99341.75;5094690;28;20028;-59
2024/01/02 02:31:20;;;;;;;0.30;0.30;;;;;;;6.12;100.00;99337.47;5095316;28;20495;-59
2024/01/02 02:33:46;;;;;;;0.30;0.30;;;;;;;6.12;100.00;99337.47;5094909;28;20024;-59
2024/01/02 02:36:11;;;;;;;0.30;0.30;;;;;;;6.12;100.00;99328.13;5094327;28;20028;-59
2024/01/02 02:38:36;;;;;;;0.30;0.30;;;;;;;6.16;100.00;99304.34;5095102;28;20024;-59
2024/01/02 02:41:02;;;;;;;0.30;0.30;;;;;;;6.15;100.00;99296.63;5095308;28;20056;-59
2024/01/02 02:43:27;;;;;;;0.30;0.30;;;;;;;6.18;100.00;99278.78;5093612;28;20135;-58
2024/01/02 02:45:52;;;;;;;0.30;0.30;;;;;;;6.21;100.00;99274.59;5095236;28;20460;-59
2024/01/02 02:48:17;;;;;;;0.32;0.32;;;;;;;6.24;100.00;99266.97;5094744;28;20101;-59
2024/01/02 02:50:43;;;;;;;0.30;0.30;;;;;;;6.26;100.00;99260.22;5093899;28;20040;-59
2024/01/02 02:53:08;;;;;;;0.30;0.30;;;;;;;6.26;100.00;99257.66;5094737;28;20094;-59
2024/01/02 02:55:33;;;;;;;0.20;0.20;;;;;;;6.29;100.00;99246.63;5094056;28;20349;-59
2024/01/02 02:57:58;;;;;;;0.30;0.30;;;;;;;6.30;100.00;99238.13;5094964;28;20016;-59
2024/01/02 03:00:24;;;;;;;0.40;0.40;;;;;;;6.32;100.00;99217.69;5094535;28;20077;-59
2024/01/02 03:02:49;;;;;;;0.30;0.30;;;;;;;6.31;100.00;99213.41;5093367;28;20032;-58
2024/01/02 03:05:15;;;;;;;0.20;0.20;;;;;;;6.33;100.00;99211.75;5094238;28;20036;-59
2024/01/02 03:07:41;;;;;;;0.35;0.35;;;;;;;6.32;100.00;99208.28;5094447;28;20024;-59
2024/01/02 03:10:07;;;;;;;0.40;0.40;;;;;;;6.33;100.00;99194.69;5093629;28;20024;-59
2024/01/02 03:12:32;;;;;;;0.30;0.30;;;;;;;6.34;100.00;99172.50;5094302;28;20028;-59
2024/01/02 03:14:57;;;;;;;0.35;0.35;;;;;;;6.33;100.00;99155.44;5094507;28;20028;-59
2024/01/02 03:17:23;;;;;;;0.22;0.22;;;;;;;6.33;100.00;99160.56;5093407;28;20024;-59
2024/01/02 03:19:48;;;;;;;0.30;0.30;;;;;;;6.35;100.00;99133.28;5093524;28;20077;-59
2024/01/02 03:22:13;;;;;;;0.30;0.30;;;;;;;6.35;100.00;99138.41;5093936;28;20025;-58
2024/01/02 03:24:38;;;;;;;0.30;0.30;;;;;;;6.37;100.00;99147.00;5093441;28;20051;-58
2024/01/02 03:27:04;;;;;;;0.30;0.30;;;;;;;6.38;100.00;99134.22;5094198;28;20020;-59
2024/01/02 03:29:29;;;;;;;0.30;0.30;;;;;;;6.42;100.00;99125.75;5094077;28;20039;-59
2024/01/02 03:31:54;;;;;;;0.30;0.30;;;;;;;6.42;100.00;99112.97;5092997;28;20480;-59
2024/01/02 03:34:20;;;;;;;0.40;0.40;;;;;;;6.43;100.00;99095.94;5093782;28;20020;-59
2024/01/02 03:36:45;;;;;;;0.30;0.30;;;;;;;6.44;100.00;99087.41;5094059;28;20020;-59
2024/01/02 03:39:10;;;;;;;0.20;0.20;;;;;;;6.46;100.00;99083.19;5092838;28;20074;-59
2024/01/02 03:41:36;;;;;;;0.30;0.30;;;;;;;6.48;100.00;99094.31;5093867;28;20051;-59
2024/01/02 03:44:01;;;;;;;0.30;0.30;;;;;;;6.49;100.00;99095.16;5093901;28;20028;-59
2024/01/02 03:46:26;;;;;;;0.30;0.30;;;;;;;6.51;100.00;99084.13;5092948;28;20024;-59
2024/01/02 03:48:51;;;;;;;0.35;0.35;;;;;;;6.56;100.00;99086.78;5093563;28;20067;-59
2024/01/02 03:51:17;;;;;;;0.30;0.30;;;;;;;6.60;100.00;99075.75;5093177;28;20020;-59
2024/01/02 03:53:42;;;;;;;0.30;0.30;;;;;;;6.62;100.00;99068.09;5092927;28;20020;-59
2024/01/02 03:56:10;;;;;;;0.28;0.28;;;;;;;6.66;100.00;99064.75;5093854;28;20021;-58
2024/01/02 03:58:36;;;;;;;0.30;0.30;;;;;;;6.69;100.00;99055.41;5093831;28;20031;-59
2024/01/02 04:01:01;;;;;;;0.30;0.30;;;;;;;6.72;100.00;99054.59;5092823;28;20028;-59
2024/01/02 04:03:26;;;;;;;0.20;0.20;;;;;;;6.73;100.00;99052.06;5092844;28;20113;-58
2024/01/02 04:05:53;;;;;;;0.30;0.30;;;;;;;6.76;100.00;99048.69;5091848;28;20032;-59
2024/01/02 04:08:18;;;;;;;0.30;0.30;;;;;;;6.80;100.00;99047.91;5099453;28;20399;-59
2024/01/02 04:10:44;;;;;;;0.30;0.30;;;;;;;6.83;100.00;99049.63;5093560;28;20460;-59
2024/01/02 04:13:09;;;;;;;0.30;0.30;;;;;;;6.87;100.00;99046.31;5092196;28;20452;-59
2024/01/02 04:15:35;;;;;;;0.30;0.30;;;;;;;6.92;100.00;99040.41;5093458;28;20058;-59
2024/01/02 04:18:01;;;;;;;0.30;0.30;;;;;;;6.97;100.00;99039.63;5093309;28;20024;-58
2024/01/02 04:20:26;;;;;;;0.20;0.20;;;;;;;6.98;100.00;99033.66;5092306;28;20039;-59
2024/01/02 04:22:54;;;;;;;0.25;0.25;;;;;;;7.02;100.00;99030.31;5092873;28;20034;-59
2024/01/02 04:25:20;;;;;;;0.30;0.30;;;;;;;7.08;100.00;99020.16;5092825;28;20028;-58
2024/01/02 04:27:46;;;;;;;0.30;0.30;;;;;;;7.09;100.00;99017.59;5092615;28;20062;-59
2024/01/02 04:30:11;;;;;;;0.20;0.20;;;;;;;7.15;100.00;99019.38;5092942;28;20028;-59
2024/01/02 04:32:37;;;;;;;0.25;0.25;;;;;;;7.18;100.00;99022.00;5092627;28;20020;-58
2024/01/02 04:35:02;;;;;;;0.20;0.20;;;;;;;7.23;100.00;99019.47;5092184;28;20023;-59
2024/01/02 04:37:28;;;;;;;0.30;0.30;;;;;;;7.24;100.00;99021.22;5092779;28;20063;-59
2024/01/02 04:39:53;;;;;;;0.30;0.30;;;;;;;7.31;100.00;99006.78;5092785;28;20021;-59
2024/01/02 04:42:18;;;;;;;0.30;0.30;;;;;;;7.38;100.00;99012.00;5091900;28;20032;-59
2024/01/02 04:44:43;;;;;;;0.30;0.30;;;;;;;7.42;100.00;99015.47;5092877;28;20468;-59
2024/01/02 04:47:09;;;;;;;0.20;0.20;;;;;;;7.46;100.00;99017.22;5093085;28;20043;-59
2024/01/02 04:49:34;;;;;;;0.20;0.20;;;;;;;7.50;100.00;99018.13;5091835;28;20108;-59
2024/01/02 04:51:59;;;;;;;0.30;0.30;;;;;;;7.53;100.00;99011.34;5092831;28;20016;-59
2024/01/02 04:54:26;;;;;;;0.30;0.30;;;;;;;7.55;100.00;99012.25;5092597;28;20016;-58
2024/01/02 04:56:51;;;;;;;0.20;0.20;;;;;;;7.57;100.00;99004.56;5092156;28;20020;-59
2024/01/02 04:59:17;;;;;;;0.30;0.30;;;;;;;7.59;100.00;99010.53;5092582;28;20500;-59
2024/01/02 05:01:42;;;;;;;0.30;0.30;;;;;;;7.65;100.00;99013.19;5092820;28;20107;-59
2024/01/02 05:04:07;;;;;;;0.20;0.20;;;;;;;7.69;100.00;99014.09;5091778;28;20032;-58
2024/01/02 05:06:33;;;;;;;0.20;0.20;;;;;;;7.75;100.00;99006.47;5092251;28;20028;-59
2024/01/02 05:08:58;;;;;;;0.30;0.30;;;;;;;7.85;100.00;99000.59;5092624;28;20107;-58
2024/01/02 05:11:23;;;;;;;0.20;0.20;;;;;;;7.91;100.00;99015.19;5092731;28;20032;-59
2024/01/02 05:13:49;;;;;;;0.30;0.30;;;;;;;7.98;100.00;99005.84;5110863;28;20103;-59
2024/01/02 05:16:14;;;;;;;0.20;0.20;;;;;;;8.03;100.00;99007.63;5111582;28;20019;-59
2024/01/02 05:18:40;;;;;;;0.30;0.30;;;;;;;8.07;100.00;99011.09;5112819;28;20110;-59
2024/01/02 05:21:07;;;;;;;0.30;0.30;;;;;;;8.17;100.00;99015.47;5112828;28;20019;-59
2024/01/02 05:23:32;;;;;;;0.30;0.30;;;;;;;8.21;100.00;99018.91;5111872;28;20030;-59
2024/01/02 05:25:58;;;;;;;0.20;0.20;;;;;;;8.28;100.00;99022.41;5113090;28;20039;-59
2024/01/02 05:28:23;;;;;;;0.30;0.30;;;;;;;8.29;100.00;99018.97;5112716;28;20027;-59
2024/01/02 05:30:48;;;;;;;0.20;0.20;;;;;;;8.33;100.00;99013.06;5112204;28;20027;-59
2024/01/02 05:33:14;;;;;;;0.20;0.20;;;;;;;8.39;100.00;99005.38;5112198;28;20459;-59
2024/01/02 05:35:39;;;;;;;0.20;0.20;;;;;;;8.40;100.00;99008.00;5112818;28;20063;-59
2024/01/02 05:38:04;;;;;;;0.30;0.30;;;;;;;8.52;100.00;98999.56;5111953;28;20103;-59
2024/01/02 05:40:30;;;;;;;0.30;0.30;;;;;;;8.59;100.00;98985.06;5112567;28;20016;-58
2024/01/02 05:42:55;;;;;;;0.30;0.30;;;;;;;8.63;100.00;98996.22;5112790;28;20363;-59
2024/01/02 05:45:20;;;;;;;0.22;0.22;;;;;;;8.63;100.00;99002.19;5114854;28;20037;-58
2024/01/02 05:47:46;;;;;;;0.28;0.28;;;;;;;8.69;100.00;99001.41;5116452;28;20028;-58
2024/01/02 05:50:11;;;;;;;0.30;0.30;;;;;;;8.75;100.00;98990.28;5115651;28;20108;-59
2024/01/02 05:52:38;;;;;;;0.20;0.20;;;;;;;8.80;100.00;99012.59;5115708;28;20027;-59
2024/01/02 05:55:03;;;;;;;0.30;0.30;;;;;;;8.84;100.00;99032.31;5116258;28;20016;-59
2024/01/02 05:57:29;;;;;;;0.20;0.20;;;;;;;8.85;100.00;99034.03;5116034;28;20060;-59
2024/01/02 05:59:54;;;;;;;0.20;0.20;;;;;;;8.89;100.00;99029.78;5115703;28;20395;-59
2024/01/02 06:02:19;;;;;;;0.28;0.28;;;;;;;8.94;100.00;99042.66;5115745;28;20030;-59
2024/01/02 06:04:44;;;;;;;0.20;0.20;;;;;;;8.97;100.00;99034.97;5115807;28;20333;-59
2024/01/02 06:07:10;;;;;;;0.25;0.25;;;;;;;8.97;100.00;99040.97;5114854;28;20034;-59
2024/01/02 06:09:35;;;;;;;0.20;0.20;;;;;;;8.98;100.00;99049.53;5116337;28;20473;-58
2024/01/02 06:12:00;;;;;;;0.28;0.28;;;;;;;9.04;100.00;99054.72;5116325;28;20102;-59
2024/01/02 06:14:26;;;;;;;0.30;0.30;;;;;;;9.04;100.00;99052.16;5115031;28;20395;-59
2024/01/02 06:16:51;;;;;;;0.20;0.20;;;;;;;9.06;100.00;99053.00;5116003;28;20023;-59
2024/01/02 06:19:18;;;;;;;0.20;0.20;;;;;;;9.08;100.00;99056.47;5115347;28;20078;-59
2024/01/02 06:21:44;;;;;;;0.20;0.20;;;;;;;9.09;100.00;99053.06;5114949;28;20049;-59
2024/01/02 06:24:09;;;;;;;0.20;0.20;;;;;;;9.11;100.00;99071.91;5115148;28;20023;-59
2024/01/02 06:26:34;;;;;;;0.30;0.30;;;;;;;9.15;100.00;99065.91;5114908;28;20042;-59
2024/01/02 06:29:00;;;;;;;0.20;0.20;;;;;;;9.15;100.00;99078.78;5115255;28;20027;-59
2024/01/02 06:31:25;;;;;;;0.20;0.20;;;;;;;9.19;100.00;99080.53;5115212;28;20050;-59
2024/01/02 06:33:51;;;;;;;0.20;0.20;;;;;;;9.23;100.00;99082.28;5114880;28;20119;-59
2024/01/02 06:36:16;;;;;;;0.20;0.20;;;;;;;9.27;100.00;99085.72;5115327;28;20552;-59
2024/01/02 06:38:42;;;;;;;0.20;0.20;;;;;;;9.30;100.00;99077.19;5115634;28;20427;-59
2024/01/02 06:41:07;;;;;;;0.30;0.30;;;;;;;9.36;100.00;99080.63;5114685;28;20119;-59
2024/01/02 06:43:33;;;;;;;0.20;0.20;;;;;;;9.41;100.00;99072.94;5114710;28;20063;-59
2024/01/02 06:46:00;;;;;;;0.20;0.20;;;;;;;9.44;100.00;99070.41;5106495;28;20038;-60
2024/01/02 06:48:25;;;;;;;0.20;0.20;;;;;;;9.48;100.00;99082.41;5094001;28;20021;-59
2024/01/02 06:50:50;;;;;;;0.30;0.30;;;;;;;9.50;100.00;99088.44;5094765;28;20043;-59
2024/01/02 06:53:15;;;;;;;0.20;0.20;;;;;;;9.53;100.00;99093.59;5094777;28;20468;-59
2024/01/02 06:55:41;;;;;;;0.28;0.28;;;;;;;9.58;100.00;99098.78;5093753;28;20032;-59
2024/01/02 06:58:06;;;;;;;0.20;0.20;;;;;;;9.59;100.00;99099.63;5094914;28;20028;-59
2024/01/02 07:00:32;;;;;;;0.20;0.20;;;;;;;9.61;100.00;99108.22;5094239;28;20028;-59
2024/01/02 07:02:58;;;;;;;0.20;0.20;;;;;;;9.61;100.00;99103.91;5093731;28;20028;-58
2024/01/02 07:05:24;;;;;;;0.30;0.30;;;;;;;9.62;100.00;99109.91;5094163;28;20028;-59
2024/01/02 07:07:49;;;;;;;0.20;0.20;;;;;;;9.61;100.00;99113.34;5094865;28;20020;-59
2024/01/02 07:10:14;;;;;;;0.20;0.20;;;;;;;9.61;100.00;99118.50;5093610;28;20102;-59
2024/01/02 07:12:40;;;;;;;0.30;0.30;;;;;;;9.63;100.00;99121.94;5094389;28;20028;-58
2024/01/02 07:15:05;;;;;;;0.20;0.20;;;;;;;9.65;100.00;99125.38;5094413;28;20017;-59
2024/01/02 07:17:31;;;;;;;0.30;0.30;;;;;;;9.66;100.00;99114.25;5093114;28;20394;-59
2024/01/02 07:19:58;;;;;;;0.20;0.20;;;;;;;9.70;100.00;99110.81;5093847;28;20023;-59
2024/01/02 07:22:23;;;;;;;0.30;0.30;;;;;;;9.72;100.00;99111.69;5093489;28;20045;-59
2024/01/02 07:24:48;;;;;;;0.20;0.20;;;;;;;9.74;100.00;99114.28;5093537;28;20035;-59
2024/01/02 07:27:14;;;;;;;0.20;0.20;;;;;;;9.72;100.00;99121.97;5094021;28;20456;-59
2024/01/02 07:29:39;;;;;;;0.20;0.20;;;;;;;9.72;100.00;99135.72;5094098;28;20112;-59
2024/01/02 07:32:05;;;;;;;0.20;0.20;;;;;;;9.74;100.00;99135.72;5093689;28;20055;-59
2024/01/02 07:34:30;;;;;;;0.30;0.30;;;;;;;9.76;100.00;99144.31;5093515;28;20085;-59
2024/01/02 07:36:55;;;;;;;0.30;0.30;;;;;;;9.77;100.00;99135.72;5093272;28;20020;-59
2024/01/02 07:39:21;;;;;;;0.20;0.20;;;;;;;9.77;100.00;99148.59;5092758;28;20032;-59
2024/01/02 07:41:46;;;;;;;0.30;0.30;;;;;;;9.79;100.00;99154.59;5093662;28;20039;-59
2024/01/02 07:44:11;;;;;;;0.20;0.20;;;;;;;9.81;100.00;99163.22;5092789;28;20082;-59
2024/01/02 07:46:37;;;;;;;0.20;0.20;;;;;;;9.83;100.00;99166.63;5093917;28;20028;-58
2024/01/02 07:49:02;;;;;;;0.30;0.30;;;;;;;9.83;100.00;99158.91;5093436;28;20123;-59
2024/01/02 07:51:27;;;;;;;0.30;0.30;;;;;;;9.88;100.00;99174.38;5092896;28;20028;-59
2024/01/02 07:53:53;;;;;;;0.20;0.20;;;;;;;9.91;100.00;99173.53;5093839;28;20016;-59
2024/01/02 07:56:19;;;;;;;0.30;0.30;;;;;;;9.89;100.00;99176.97;5093652;28;20036;-59
2024/01/02 07:58:46;;;;;;;0.20;0.20;;;;;;;9.89;100.00;99176.97;5092865;28;20149;-59
2024/01/02 08:01:11;;;;;;;0.20;0.20;;;;;;;9.88;100.00;99172.66;5093118;28;20020;-59
2024/01/02 08:03:37;;;;;;;0.20;0.20;;;;;;;9.89;100.00;99171.81;5093432;28;20039;-59
2024/01/02 08:06:02;;;;;;;0.20;0.20;;;;;;;9.89;100.00;99171.81;5092744;28;20040;-58
2024/01/02 08:08:27;;;;;;;0.20;0.20;;;;;;;9.93;100.00;99172.69;5092882;28;20044;-59
2024/01/02 08:10:53;;;;;;;0.20;0.20;;;;;;;9.94;100.00;99168.41;5093392;28;20020;-59
2024/01/02 08:13:18;;;;;;;0.20;0.20;;;;;;;9.94;100.00;99174.44;5092406;28;20032;-59
2024/01/02 08:15:43;;;;;;;0.20;0.20;;;;;;;9.97;100.00;99173.59;5093120;28;20032;-58
2024/01/02 08:18:11;;;;;;;0.20;0.20;;;;;;;9.96;100.00;99188.16;5092977;28;20040;-58
2024/01/02 08:20:36;;;;;;;0.20;0.20;;;;;;;9.97;100.00;99178.72;5092718;28;20372;-59
2024/01/02 08:23:02;;;;;;;0.22;0.22;;;;;;;9.97;100.00;99182.16;5093283;28;20468;-58
2024/01/02 08:25:28;;;;;;;0.20;0.20;;;;;;;9.96;100.00;99192.44;5092428;28;20527;-59
2024/01/02 08:27:53;;;;;;;0.20;0.20;;;;;;;10.00;100.00;99186.44;5090774;28;20082;-59
2024/01/02 08:30:18;;;;;;;0.20;0.20;;;;;;;9.99;100.00;99187.31;5091855;28;20103;-59
2024/01/02 08:32:46;;;;;;;0.20;0.20;;;;;;;10.01;100.00;99190.75;5102897;28;20081;-58
2024/01/02 08:35:12;;;;;;;0.17;0.17;;;;;;;10.03;100.00;99189.03;5111200;28;20031;-58
2024/01/02 08:37:37;;;;;;;0.20;0.20;;;;;;;10.05;100.00;99187.34;5111825;28;20027;-58
2024/01/02 08:40:03;;;;;;;0.20;0.20;;;;;;;10.07;100.00;99183.06;5112298;28;20039;-58
2024/01/02 08:42:28;;;;;;;0.22;0.22;;;;;;;10.07;100.00;99180.50;5112791;28;20023;-58
2024/01/02 08:44:53;;;;;;;0.20;0.20;;;;;;;10.07;100.00;99177.03;5113107;28;20031;-58
2024/01/02 08:47:19;;;;;;;0.10;0.10;;;;;;;10.08;100.00;99174.47;5111997;28;20061;-58
2024/01/02 08:49:45;;;;;;;0.20;0.20;;;;;;;10.08;100.00;99168.47;5113140;28;20042;-58
2024/01/02 08:52:11;;;;;;;0.13;0.13;;;;;;;10.13;100.00;99159.91;5113075;28;20031;-57
2024/01/02 08:54:37;;;;;;;0.20;0.20;;;;;;;10.15;100.00;99165.94;5112517;28;20020;-57
2024/01/02 08:57:02;;;;;;;0.20;0.20;;;;;;;10.17;100.00;99151.38;5113174;28;20468;-57
2024/01/02 08:59:28;;;;;;;0.20;0.20;;;;;;;10.21;100.00;99158.25;5112826;28;20023;-57
2024/01/02 09:01:53;;;;;;;0.20;0.20;;;;;;;10.23;100.00;99150.50;5112247;28;20030;-58
2024/01/02 09:04:18;;;;;;;0.20;0.20;;;;;;;10.25;100.00;99147.94;5112785;28;20035;-57
2024/01/02 09:06:45;;;;;;;0.15;0.15;;;;;;;10.26;100.00;99147.09;5113189;28;20023;-57
2024/01/02 09:09:10;;;;;;;0.20;0.20;;;;;;;10.24;100.00;99151.38;5112106;28;20111;-58
2024/01/02 09:11:37;;;;;;;0.20;0.20;;;;;;;10.26;100.00;99145.38;5113139;28;20460;-58
2024/01/02 09:14:02;;;;;;;0.20;0.20;;;;;;;10.29;100.00;99141.94;5112951;28;20103;-57
2024/01/02 09:16:31;;;;;;;0.20;0.20;;;;;;;10.29;100.00;99134.22;5111990;28;20020;-57
2024/01/02 09:18:57;;;;;;;0.20;0.20;;;;;;;10.29;100.00;99118.75;5115744;28;20024;-57
2024/01/02 09:21:22;;;;;;;0.20;0.20;;;;;;;10.31;100.00;99117.06;5116945;28;20077;-58
2024/01/02 09:23:47;;;;;;;0.20;0.20;;;;;;;10.31;100.00;99120.50;5116357;28;20106;-57
2024/01/02 09:26:16;;;;;;;0.20;0.20;;;;;;;10.30;100.00;99121.38;5116739;28;20102;-57
2024/01/02 09:28:43;;;;;;;0.20;0.20;;;;;;;10.32;100.00;99123.94;5116910;28;20032;-58
2024/01/02 09:31:08;;;;;;;0.20;0.20;;;;;;;10.33;100.00;99121.38;5116042;28;20024;-58
2024/01/02 09:33:34;;;;;;;0.20;0.20;;;;;;;10.32;100.00;99122.22;5116777;28;20023;-57
2024/01/02 09:35:59;;;;;;;0.20;0.20;;;;;;;10.33;100.00;99128.25;5117022;28;20367;-57
2024/01/02 09:38:25;;;;;;;0.20;0.20;;;;;;;10.33;100.00;99130.81;5115864;28;20050;-58
2024/01/02 09:41:13;;;;;;;0.22;0.22;;;;;;;10.34;100.00;99124.78;5116756;28;20463;-58
2024/01/02 09:44:29;;;;;;;0.20;0.20;;;;;;;10.30;100.00;99134.25;5115807;28;20043;-58
2024/01/02 09:47:25;;;;;;;0.20;0.20;;;;;;;10.31;100.00;99137.66;5033748;28;20518;-57
2024/01/02 09:50:08;;;;;;;0.17;0.17;;;;;;;10.26;100.00;99131.66;5033590;28;20060;-57
2024/01/02 09:53:10;;;;;;;0.20;0.20;;;;;;;10.26;100.00;99129.06;5097875;28;20156;-58
2024/01/02 09:55:52;;;;;;;0.20;0.20;;;;;;;10.24;100.00;99131.66;5116438;28;20032;-58
2024/01/02 09:58:41;;;;;;;0.20;0.20;;;;;;;10.20;100.00;99123.03;5115253;28;20065;-57
2024/01/02 10:01:29;;;;;;;0.10;0.10;;;;;;;10.19;100.00;99128.19;5116515;28;20134;-57
2024/01/02 10:04:13;;;;;;;0.20;0.20;;;;;;;10.17;100.00;99135.03;5116219;28;20036;-58
2024/01/02 10:07:01;;;;;;;0.20;0.20;;;;;;;10.17;100.00;99129.88;5115228;28;20101;-58
2024/01/02 10:09:44;;;;;;;0.20;0.20;;;;;;;10.16;100.00;99133.31;5115938;28;20046;-59
2024/01/02 10:12:22;;;;;;;0.15;0.15;;;;;;;10.16;100.00;99133.31;5115131;28;20156;-59
2024/01/02 10:15:06;;;;;;;0.20;0.20;;;;;;;10.15;100.00;99131.63;5115967;28;20084;-59
2024/01/02 10:18:03;;;;;;;0.20;0.20;;;;;;;10.16;100.00;99121.31;5115591;28;20467;-58
2024/01/02 10:20:31;;;;;;;0.20;0.20;;;;;;;10.16;100.00;99118.75;5114942;28;20035;-59
2024/01/02 10:23:09;;;;;;;0.20;0.20;;;;;;;10.17;100.00;99117.91;5115772;28;20040;-59
2024/01/02 10:25:36;;;;;;;0.20;0.20;;;;;;;10.18;100.00;99106.72;5115078;28;20039;-59
2024/01/02 10:28:16;;;;;;;0.30;0.30;;;;;;;10.23;100.00;99111.06;5115906;28;20024;-59
2024/01/02 10:30:57;;;;;;;0.30;0.30;;;;;;;10.25;100.00;99104.16;5115082;28;20031;-59
2024/01/02 10:33:39;;;;;;;0.20;0.20;;;;;;;10.28;100.00;99099.91;5114670;28;20077;-59
2024/01/02 10:36:11;;;;;;;0.20;0.20;;;;;;;10.30;100.00;99100.78;5115828;28;20023;-59
2024/01/02 10:39:04;;;;;;;0.20;0.20;;;;;;;10.34;100.00;99088.75;5115760;28;20023;-58
2024/01/02 10:42:03;;;;;;;0.20;0.20;;;;;;;10.36;100.00;99085.34;5083750;28;20131;-59
2024/01/02 10:44:41;;;;;;;0.25;0.25;;;;;;;10.36;100.00;99074.19;5115319;28;20039;-58
2024/01/02 10:47:22;;;;;;;0.30;0.30;;;;;;;10.37;100.00;99075.91;5114670;28;20525;-59
2024/01/02 10:49:52;;;;;;;0.20;0.20;;;;;;;10.37;100.00;99075.91;5115300;28;20043;-59
2024/01/02 10:52:35;;;;;;;0.20;0.20;;;;;;;10.38;100.00;99075.91;5115036;28;20550;-59
2024/01/02 10:55:16;;;;;;;0.20;0.20;;;;;;;10.36;100.00;99076.78;5114790;28;20031;-59
2024/01/02 10:58:06;;;;;;;0.20;0.20;;;;;;;10.35;100.00;99068.19;5115132;28;20489;-58
2024/01/02 11:00:38;;;;;;;0.20;0.20;;;;;;;10.29;100.00;99068.16;5114948;28;20046;-59
2024/01/02 11:03:12;;;;;;;0.20;0.20;;;;;;;10.27;100.00;99063.84;5114510;28;20031;-58
2024/01/02 11:05:43;;;;;;;0.20;0.20;;;;;;;10.27;100.00;99063.84;5115280;28;20111;-59
2024/01/02 11:08:17;;;;;;;0.10;0.10;;;;;;;10.23;100.00;99062.13;5114151;28;20023;-59
2024/01/02 11:10:55;;;;;;;0.22;0.22;;;;;;;10.20;100.00;99066.41;5115011;28;20106;-59
2024/01/02 11:13:21;;;;;;;;;;;;;;;10.26;100.00;99050.09;5114963;28;20487;-59
2024/01/02 11:15:49;;;;;;;0.20;0.20;;;;;;;10.16;100.00;99040.63;5114369;28;19919;-58
2024/01/02 11:18:17;;;;;;;0.20;0.20;;;;;;;10.13;100.00;99046.63;5114701;28;20034;-58
2024/01/02 11:21:01;;;;;;;0.30;0.30;;;;;;;10.15;100.00;99044.09;5115010;28;20028;-58
2024/01/02 11:23:30;;;;;;;0.30;0.30;;;;;;;10.08;100.00;99037.19;5113546;28;20031;-58
2024/01/02 11:26:19;;;;;;;0.20;0.20;;;;;;;10.06;100.00;99024.34;5114851;28;20110;-59
2024/01/02 11:28:47;;;;;;;0.20;0.20;;;;;;;10.03;100.00;99020.03;5114759;28;20047;-59
2024/01/02 11:31:13;;;;;;;;;;;;;;;10.10;100.00;99025.22;5114202;28;20065;-59
2024/01/02 11:34:00;;;;;;;0.30;0.30;;;;;;;10.02;100.00;99017.47;5114517;28;19924;-59